Search for airport 
image banner adimage banner ad
image banner ad

ORSU - Sulaymaniyah International Airport

Located in Sulaymaniyah, Iraq

ICAO - ORSU, IATA - ISU

Data provided by Airmate  

General information

Coordinates: N35°33'38" E45°18'52"
Elevation is 2492 feet MSL.
 
Rated:
View ratings: [VIEW]


View others Airports in As-Sulaymaniyyah Governorate

Operational data

Open for public use
Current time UTC:
Current local time:
Weather
METAR: ORSU 141300Z 26006KT CAVOK 40/06 Q1000
TAF: TAF ORSU 141115Z 1412/1512 29006KT CAVOK BECMG 1415/1417 VRB03KT BECMG 1504/1506 03010KT
View NOTAMs / SUP AIP / TFR affecting this airport [VIEW]
Communications frequencies: [VIEW]

Runways:

RWY identifierQFULength (ft)Width (ft)SurfaceLDA (ft)
13133°11481148CON
31313°11483148

Airport contact information

Address: Sulaymaniyah Iraq

Satellite view of ORSU